AMX382 SLLP-SPZO
Flight info
| Callsign | AMX382 |
|---|---|
| Flight time | N/A |
| Altitude | 36000 |
| Route | ELAKO UM657 JUL UV11 ILMOX |
| Aircraft | B738/M-SDGIJ1LRWY/SB1 |
Departure
| Time | N/A |
|---|---|
| Airport | El Alto International Airport (SLLP) |
Arrival
| Time | 2026-04-23 05:23 |
|---|---|
| Airport | Alejandro Velasco Astete International Airport (SPZO) |
| Time | Latitude | Longitude | Altitude | Speed | Heading |
|---|---|---|---|---|---|
| 2026-04-23 05:00 | -15.29948 | -70.28589 | 36874 ft | 438 kts | 325° |
| 2026-04-23 05:00 | -15.27498 | -70.30502 | 36868 ft | 439 kts | 325° |
| 2026-04-23 05:00 | -15.22647 | -70.34317 | 36870 ft | 439 kts | 324° |
| 2026-04-23 05:01 | -15.17794 | -70.38159 | 36866 ft | 438 kts | 324° |
| 2026-04-23 05:01 | -15.12953 | -70.42003 | 36871 ft | 438 kts | 324° |
| 2026-04-23 05:02 | -15.08132 | -70.45834 | 36868 ft | 439 kts | 324° |
| 2026-04-23 05:02 | -15.03262 | -70.49700 | 36868 ft | 440 kts | 324° |
| 2026-04-23 05:03 | -14.98423 | -70.53539 | 36873 ft | 440 kts | 325° |
| 2026-04-23 05:03 | -14.93553 | -70.57401 | 36883 ft | 439 kts | 325° |
| 2026-04-23 05:04 | -14.88698 | -70.61249 | 36889 ft | 439 kts | 324° |
| 2026-04-23 05:04 | -14.83863 | -70.65080 | 36894 ft | 438 kts | 325° |
| 2026-04-23 05:05 | -14.79006 | -70.68926 | 36900 ft | 439 kts | 325° |
| 2026-04-23 05:05 | -14.74148 | -70.72768 | 36919 ft | 441 kts | 325° |
| 2026-04-23 05:06 | -14.69274 | -70.76620 | 36923 ft | 441 kts | 325° |
| 2026-04-23 05:06 | -14.64391 | -70.80481 | 36934 ft | 440 kts | 325° |
| 2026-04-23 05:07 | -14.59539 | -70.84312 | 36957 ft | 440 kts | 325° |
| 2026-04-23 05:07 | -14.54652 | -70.88170 | 36998 ft | 441 kts | 325° |
| 2026-04-23 05:08 | -14.49792 | -70.92003 | 37019 ft | 441 kts | 325° |
| 2026-04-23 05:08 | -14.44914 | -70.95848 | 37033 ft | 439 kts | 325° |
| 2026-04-23 05:09 | -14.42512 | -70.97743 | 36817 ft | 430 kts | 325° |
| 2026-04-23 05:09 | -14.40157 | -70.99603 | 36380 ft | 424 kts | 325° |
| 2026-04-23 05:09 | -14.37820 | -71.01446 | 35813 ft | 421 kts | 325° |
| 2026-04-23 05:09 | -14.35511 | -71.03265 | 35154 ft | 421 kts | 325° |
| 2026-04-23 05:10 | -14.33164 | -71.05110 | 34449 ft | 421 kts | 324° |
| 2026-04-23 05:10 | -14.30866 | -71.06918 | 33991 ft | 416 kts | 324° |
| 2026-04-23 05:10 | -14.28549 | -71.08739 | 33497 ft | 422 kts | 324° |
| 2026-04-23 05:10 | -14.26216 | -71.10572 | 32968 ft | 422 kts | 324° |
| 2026-04-23 05:11 | -14.23879 | -71.12409 | 32467 ft | 418 kts | 324° |
| 2026-04-23 05:11 | -14.21572 | -71.14224 | 31949 ft | 414 kts | 324° |
| 2026-04-23 05:11 | -14.19314 | -71.16002 | 31432 ft | 411 kts | 324° |
| 2026-04-23 05:11 | -14.17031 | -71.17798 | 30926 ft | 408 kts | 324° |
| 2026-04-23 05:12 | -14.14787 | -71.19561 | 30417 ft | 405 kts | 323° |
| 2026-04-23 05:12 | -14.12559 | -71.21310 | 29913 ft | 402 kts | 323° |
| 2026-04-23 05:12 | -14.10344 | -71.23049 | 29401 ft | 400 kts | 323° |
| 2026-04-23 05:12 | -14.08147 | -71.24773 | 28893 ft | 397 kts | 323° |
| 2026-04-23 05:13 | -14.05943 | -71.26503 | 28403 ft | 394 kts | 323° |
| 2026-04-23 05:13 | -14.03764 | -71.28213 | 27909 ft | 391 kts | 323° |
| 2026-04-23 05:13 | -14.01627 | -71.29889 | 27420 ft | 389 kts | 323° |
| 2026-04-23 05:14 | -13.97328 | -71.33260 | 26440 ft | 384 kts | 323° |
| 2026-04-23 05:14 | -13.95208 | -71.34923 | 25946 ft | 382 kts | 323° |
| 2026-04-23 05:14 | -13.93113 | -71.36565 | 25445 ft | 380 kts | 323° |
| 2026-04-23 05:14 | -13.91011 | -71.38212 | 24964 ft | 378 kts | 323° |
| 2026-04-23 05:15 | -13.88930 | -71.39842 | 24471 ft | 376 kts | 323° |
| 2026-04-23 05:15 | -13.86853 | -71.41469 | 23983 ft | 374 kts | 323° |
| 2026-04-23 05:15 | -13.84778 | -71.43095 | 23528 ft | 372 kts | 322° |
| 2026-04-23 05:15 | -13.82717 | -71.44709 | 23078 ft | 371 kts | 322° |
| 2026-04-23 05:16 | -13.80664 | -71.46316 | 22590 ft | 371 kts | 323° |
| 2026-04-23 05:16 | -13.78635 | -71.47903 | 22119 ft | 370 kts | 323° |
| 2026-04-23 05:16 | -13.76568 | -71.49520 | 21649 ft | 370 kts | 323° |
| 2026-04-23 05:16 | -13.74531 | -71.51114 | 21175 ft | 370 kts | 323° |
| 2026-04-23 05:17 | -13.72492 | -71.52708 | 20682 ft | 370 kts | 323° |
| 2026-04-23 05:17 | -13.70437 | -71.54316 | 20194 ft | 369 kts | 323° |
| 2026-04-23 05:17 | -13.68412 | -71.55898 | 19715 ft | 368 kts | 323° |
| 2026-04-23 05:17 | -13.66420 | -71.57568 | 19223 ft | 367 kts | 317° |
| 2026-04-23 05:18 | -13.64799 | -71.59571 | 18815 ft | 365 kts | 303° |
| 2026-04-23 05:18 | -13.63648 | -71.61937 | 17967 ft | 376 kts | 293° |
| 2026-04-23 05:18 | -13.62725 | -71.64433 | 16899 ft | 379 kts | 290° |
| 2026-04-23 05:18 | -13.61902 | -71.66967 | 16203 ft | 367 kts | 286° |
| 2026-04-23 05:19 | -13.61448 | -71.69524 | 15657 ft | 354 kts | 275° |
| 2026-04-23 05:19 | -13.61158 | -71.71991 | 15091 ft | 348 kts | 285° |
| 2026-04-23 05:19 | -13.60367 | -71.74308 | 14502 ft | 337 kts | 295° |
| 2026-04-23 05:19 | -13.59389 | -71.76424 | 13971 ft | 313 kts | 297° |
| 2026-04-23 05:20 | -13.58482 | -71.78316 | 13558 ft | 282 kts | 297° |
| 2026-04-23 05:20 | -13.57682 | -71.80045 | 13189 ft | 253 kts | 296° |
| 2026-04-23 05:20 | -13.56997 | -71.81615 | 12862 ft | 230 kts | 294° |
| 2026-04-23 05:20 | -13.56445 | -71.83074 | 12581 ft | 211 kts | 290° |
| 2026-04-23 05:21 | -13.55990 | -71.84454 | 12305 ft | 194 kts | 290° |
| 2026-04-23 05:21 | -13.55546 | -71.85719 | 12099 ft | 182 kts | 295° |
| 2026-04-23 05:21 | -13.54941 | -71.86849 | 11874 ft | 176 kts | 304° |
| 2026-04-23 05:21 | -13.54295 | -71.87917 | 11642 ft | 177 kts | 297° |
| 2026-04-23 05:22 | -13.54029 | -71.89143 | 11383 ft | 178 kts | 274° |
| 2026-04-23 05:22 | -13.53933 | -71.90401 | 11084 ft | 176 kts | 277° |
| 2026-04-23 05:22 | -13.53804 | -71.91658 | 10861 ft | 175 kts | 277° |
| 2026-04-23 05:22 | -13.53670 | -71.92905 | 10768 ft | 174 kts | 277° |
| 2026-04-23 05:23 | -13.53538 | -71.94112 | 10820 ft | 169 kts | 276° |
| 2026-04-23 05:23 | -13.53439 | -71.95208 | 10877 ft | 133 kts | 274° |
| 2026-04-23 05:23 | -13.53377 | -71.95943 | 10918 ft | 79 kts | 283° |
| 2026-04-23 05:23 | -13.53245 | -71.96331 | 10934 ft | 32 kts | 287° |
| 2026-04-23 05:24 | -13.53234 | -71.96375 | 10936 ft | 0 kts | 282° |